sensor_id;sensor_type;location;lat;lon;timestamp;P1;durP1;ratioP1;P2;durP2;ratioP2
12756;SDS011;31601;48.042;12.240;2023-05-24T00:02:21;4.93;;;4.40;;
12756;SDS011;31601;48.042;12.240;2023-05-24T00:04:50;5.70;;;4.80;;
12756;SDS011;31601;48.042;12.240;2023-05-24T00:07:17;4.63;;;4.23;;
12756;SDS011;31601;48.042;12.240;2023-05-24T00:09:44;6.17;;;4.83;;
12756;SDS011;31601;48.042;12.240;2023-05-24T00:12:10;5.67;;;5.17;;
12756;SDS011;31601;48.042;12.240;2023-05-24T00:14:38;5.03;;;4.40;;
12756;SDS011;31601;48.042;12.240;2023-05-24T00:17:04;7.80;;;4.83;;
12756;SDS011;31601;48.042;12.240;2023-05-24T00:19:30;5.57;;;4.97;;
12756;SDS011;31601;48.042;12.240;2023-05-24T00:21:57;4.90;;;4.40;;
12756;SDS011;31601;48.042;12.240;2023-05-24T00:24:23;5.27;;;4.77;;
12756;SDS011;31601;48.042;12.240;2023-05-24T00:26:50;5.13;;;4.63;;
12756;SDS011;31601;48.042;12.240;2023-05-24T00:29:16;5.93;;;4.80;;
12756;SDS011;31601;48.042;12.240;2023-05-24T00:31:44;4.93;;;4.53;;
12756;SDS011;31601;48.042;12.240;2023-05-24T00:34:10;4.63;;;4.23;;
12756;SDS011;31601;48.042;12.240;2023-05-24T00:36:37;5.07;;;4.57;;
12756;SDS011;31601;48.042;12.240;2023-05-24T00:39:03;5.80;;;4.33;;
12756;SDS011;31601;48.042;12.240;2023-05-24T00:41:30;7.20;;;4.70;;
12756;SDS011;31601;48.042;12.240;2023-05-24T00:43:56;6.60;;;4.97;;
12756;SDS011;31601;48.042;12.240;2023-05-24T00:46:25;5.50;;;4.90;;
12756;SDS011;31601;48.042;12.240;2023-05-24T00:48:54;7.27;;;5.03;;
12756;SDS011;31601;48.042;12.240;2023-05-24T00:51:22;5.67;;;4.80;;
12756;SDS011;31601;48.042;12.240;2023-05-24T00:53:51;5.33;;;4.83;;
12756;SDS011;31601;48.042;12.240;2023-05-24T00:56:18;8.30;;;4.70;;
12756;SDS011;31601;48.042;12.240;2023-05-24T00:58:44;6.23;;;5.07;;
12756;SDS011;31601;48.042;12.240;2023-05-24T01:01:12;5.73;;;5.10;;
12756;SDS011;31601;48.042;12.240;2023-05-24T01:03:38;5.37;;;4.87;;
12756;SDS011;31601;48.042;12.240;2023-05-24T01:06:07;7.40;;;5.43;;
12756;SDS011;31601;48.042;12.240;2023-05-24T01:08:40;5.17;;;4.77;;
12756;SDS011;31601;48.042;12.240;2023-05-24T01:11:15;5.50;;;5.00;;
12756;SDS011;31601;48.042;12.240;2023-05-24T01:13:49;5.90;;;5.40;;
12756;SDS011;31601;48.042;12.240;2023-05-24T01:16:21;7.20;;;5.37;;
12756;SDS011;31601;48.042;12.240;2023-05-24T01:18:51;5.47;;;4.97;;
12756;SDS011;31601;48.042;12.240;2023-05-24T01:21:28;7.07;;;5.67;;
12756;SDS011;31601;48.042;12.240;2023-05-24T01:24:04;5.93;;;5.43;;
12756;SDS011;31601;48.042;12.240;2023-05-24T01:26:41;6.60;;;5.37;;
12756;SDS011;31601;48.042;12.240;2023-05-24T01:29:17;8.93;;;5.53;;
12756;SDS011;31601;48.042;12.240;2023-05-24T01:31:44;6.00;;;5.40;;
12756;SDS011;31601;48.042;12.240;2023-05-24T01:34:11;6.17;;;5.00;;
12756;SDS011;31601;48.042;12.240;2023-05-24T01:36:37;6.93;;;5.20;;
12756;SDS011;31601;48.042;12.240;2023-05-24T01:39:03;6.20;;;5.07;;
12756;SDS011;31601;48.042;12.240;2023-05-24T01:41:33;5.80;;;5.20;;
12756;SDS011;31601;48.042;12.240;2023-05-24T01:44:06;5.63;;;4.90;;
12756;SDS011;31601;48.042;12.240;2023-05-24T01:46:40;7.13;;;4.83;;
12756;SDS011;31601;48.042;12.240;2023-05-24T01:49:10;8.00;;;5.23;;
12756;SDS011;31601;48.042;12.240;2023-05-24T01:51:49;6.07;;;5.57;;
12756;SDS011;31601;48.042;12.240;2023-05-24T01:54:19;5.67;;;5.13;;
12756;SDS011;31601;48.042;12.240;2023-05-24T01:56:48;6.67;;;5.97;;
12756;SDS011;31601;48.042;12.240;2023-05-24T01:59:17;7.80;;;7.00;;
12756;SDS011;31601;48.042;12.240;2023-05-24T02:01:47;10.60;;;7.93;;
12756;SDS011;31601;48.042;12.240;2023-05-24T02:04:14;7.00;;;5.03;;
12756;SDS011;31601;48.042;12.240;2023-05-24T02:06:41;7.00;;;6.30;;
12756;SDS011;31601;48.042;12.240;2023-05-24T02:09:07;5.47;;;4.97;;
12756;SDS011;31601;48.042;12.240;2023-05-24T02:11:33;6.47;;;4.80;;
12756;SDS011;31601;48.042;12.240;2023-05-24T02:14:00;6.03;;;5.53;;
12756;SDS011;31601;48.042;12.240;2023-05-24T02:16:26;6.03;;;5.43;;
12756;SDS011;31601;48.042;12.240;2023-05-24T02:18:55;6.03;;;5.43;;
12756;SDS011;31601;48.042;12.240;2023-05-24T02:21:22;5.90;;;5.30;;
12756;SDS011;31601;48.042;12.240;2023-05-24T02:23:49;5.70;;;5.20;;
12756;SDS011;31601;48.042;12.240;2023-05-24T02:26:16;5.90;;;5.30;;
12756;SDS011;31601;48.042;12.240;2023-05-24T02:28:43;6.13;;;5.53;;
12756;SDS011;31601;48.042;12.240;2023-05-24T02:31:10;5.43;;;4.93;;
12756;SDS011;31601;48.042;12.240;2023-05-24T02:33:36;6.10;;;5.50;;
12756;SDS011;31601;48.042;12.240;2023-05-24T02:36:04;10.43;;;6.03;;
12756;SDS011;31601;48.042;12.240;2023-05-24T02:38:30;6.97;;;5.60;;
12756;SDS011;31601;48.042;12.240;2023-05-24T02:40:57;6.63;;;5.50;;
12756;SDS011;31601;48.042;12.240;2023-05-24T02:43:23;7.83;;;5.23;;
12756;SDS011;31601;48.042;12.240;2023-05-24T02:45:50;5.60;;;5.10;;
12756;SDS011;31601;48.042;12.240;2023-05-24T02:48:16;6.10;;;5.20;;
12756;SDS011;31601;48.042;12.240;2023-05-24T02:50:42;5.97;;;5.37;;
12756;SDS011;31601;48.042;12.240;2023-05-24T02:53:10;8.50;;;5.33;;
12756;SDS011;31601;48.042;12.240;2023-05-24T02:55:37;6.93;;;5.27;;
12756;SDS011;31601;48.042;12.240;2023-05-24T02:58:03;8.83;;;5.20;;
12756;SDS011;31601;48.042;12.240;2023-05-24T03:00:30;6.17;;;5.57;;
12756;SDS011;31601;48.042;12.240;2023-05-24T03:02:56;6.20;;;5.60;;
12756;SDS011;31601;48.042;12.240;2023-05-24T03:05:26;7.67;;;6.90;;
12756;SDS011;31601;48.042;12.240;2023-05-24T03:07:52;6.37;;;5.77;;
12756;SDS011;31601;48.042;12.240;2023-05-24T03:10:20;7.33;;;5.60;;
12756;SDS011;31601;48.042;12.240;2023-05-24T03:12:47;7.13;;;5.93;;
12756;SDS011;31601;48.042;12.240;2023-05-24T03:15:13;7.27;;;5.50;;
12756;SDS011;31601;48.042;12.240;2023-05-24T03:17:39;8.67;;;5.97;;
12756;SDS011;31601;48.042;12.240;2023-05-24T03:20:06;6.57;;;5.60;;
12756;SDS011;31601;48.042;12.240;2023-05-24T03:22:35;5.80;;;5.20;;
12756;SDS011;31601;48.042;12.240;2023-05-24T03:25:02;6.23;;;5.37;;
12756;SDS011;31601;48.042;12.240;2023-05-24T03:27:30;6.17;;;5.67;;
12756;SDS011;31601;48.042;12.240;2023-05-24T03:29:56;6.57;;;5.90;;
12756;SDS011;31601;48.042;12.240;2023-05-24T03:32:22;6.67;;;5.40;;
12756;SDS011;31601;48.042;12.240;2023-05-24T03:34:49;7.90;;;5.67;;
12756;SDS011;31601;48.042;12.240;2023-05-24T03:37:15;7.83;;;5.60;;
12756;SDS011;31601;48.042;12.240;2023-05-24T03:39:42;6.73;;;5.93;;
12756;SDS011;31601;48.042;12.240;2023-05-24T03:42:08;6.43;;;5.83;;
12756;SDS011;31601;48.042;12.240;2023-05-24T03:44:36;8.10;;;6.10;;
12756;SDS011;31601;48.042;12.240;2023-05-24T03:47:02;6.60;;;6.00;;
12756;SDS011;31601;48.042;12.240;2023-05-24T03:49:30;6.37;;;5.77;;
12756;SDS011;31601;48.042;12.240;2023-05-24T03:51:57;6.57;;;5.90;;
12756;SDS011;31601;48.042;12.240;2023-05-24T03:54:23;14.90;;;13.17;;
12756;SDS011;31601;48.042;12.240;2023-05-24T03:56:49;6.90;;;6.20;;
12756;SDS011;31601;48.042;12.240;2023-05-24T03:59:17;6.57;;;5.97;;
12756;SDS011;31601;48.042;12.240;2023-05-24T04:01:45;6.50;;;5.90;;
12756;SDS011;31601;48.042;12.240;2023-05-24T04:04:11;6.40;;;5.80;;
12756;SDS011;31601;48.042;12.240;2023-05-24T04:06:38;8.70;;;6.20;;
12756;SDS011;31601;48.042;12.240;2023-05-24T04:09:05;9.07;;;5.93;;
12756;SDS011;31601;48.042;12.240;2023-05-24T04:11:34;7.03;;;5.57;;
12756;SDS011;31601;48.042;12.240;2023-05-24T04:14:00;7.23;;;5.70;;
12756;SDS011;31601;48.042;12.240;2023-05-24T04:16:27;6.10;;;5.50;;
12756;SDS011;31601;48.042;12.240;2023-05-24T04:18:59;6.50;;;5.90;;
12756;SDS011;31601;48.042;12.240;2023-05-24T04:21:27;8.30;;;6.00;;
12756;SDS011;31601;48.042;12.240;2023-05-24T04:23:54;6.53;;;5.93;;
12756;SDS011;31601;48.042;12.240;2023-05-24T04:26:22;7.00;;;5.83;;
12756;SDS011;31601;48.042;12.240;2023-05-24T04:28:48;6.43;;;5.83;;
12756;SDS011;31601;48.042;12.240;2023-05-24T04:31:14;7.30;;;6.67;;
12756;SDS011;31601;48.042;12.240;2023-05-24T04:33:41;7.63;;;6.83;;
12756;SDS011;31601;48.042;12.240;2023-05-24T04:36:09;8.10;;;6.67;;
12756;SDS011;31601;48.042;12.240;2023-05-24T04:38:37;7.07;;;6.37;;
12756;SDS011;31601;48.042;12.240;2023-05-24T04:41:05;6.60;;;5.80;;
12756;SDS011;31601;48.042;12.240;2023-05-24T04:43:32;7.83;;;6.83;;
12756;SDS011;31601;48.042;12.240;2023-05-24T04:45:59;7.47;;;6.67;;
12756;SDS011;31601;48.042;12.240;2023-05-24T04:48:25;7.53;;;6.73;;
12756;SDS011;31601;48.042;12.240;2023-05-24T04:50:52;9.90;;;6.87;;
12756;SDS011;31601;48.042;12.240;2023-05-24T04:53:21;9.57;;;6.67;;
12756;SDS011;31601;48.042;12.240;2023-05-24T04:55:48;7.33;;;6.30;;
12756;SDS011;31601;48.042;12.240;2023-05-24T04:58:15;7.93;;;6.90;;
12756;SDS011;31601;48.042;12.240;2023-05-24T05:00:42;8.60;;;6.63;;
12756;SDS011;31601;48.042;12.240;2023-05-24T05:03:09;7.40;;;6.40;;
12756;SDS011;31601;48.042;12.240;2023-05-24T05:05:36;7.37;;;6.67;;
12756;SDS011;31601;48.042;12.240;2023-05-24T05:08:02;7.20;;;6.50;;
12756;SDS011;31601;48.042;12.240;2023-05-24T05:10:30;9.67;;;6.83;;
12756;SDS011;31601;48.042;12.240;2023-05-24T05:12:57;7.40;;;6.70;;
12756;SDS011;31601;48.042;12.240;2023-05-24T05:15:23;7.67;;;6.73;;
12756;SDS011;31601;48.042;12.240;2023-05-24T05:17:49;10.43;;;7.20;;
12756;SDS011;31601;48.042;12.240;2023-05-24T05:20:16;7.87;;;6.77;;
12756;SDS011;31601;48.042;12.240;2023-05-24T05:22:44;11.70;;;7.17;;
12756;SDS011;31601;48.042;12.240;2023-05-24T05:25:11;10.27;;;7.03;;
12756;SDS011;31601;48.042;12.240;2023-05-24T05:27:38;7.70;;;6.90;;
12756;SDS011;31601;48.042;12.240;2023-05-24T05:30:05;10.40;;;7.37;;
12756;SDS011;31601;48.042;12.240;2023-05-24T05:32:33;15.37;;;8.00;;
12756;SDS011;31601;48.042;12.240;2023-05-24T05:35:00;13.17;;;7.60;;
12756;SDS011;31601;48.042;12.240;2023-05-24T05:37:26;22.93;;;8.30;;
12756;SDS011;31601;48.042;12.240;2023-05-24T05:39:53;12.87;;;8.23;;
12756;SDS011;31601;48.042;12.240;2023-05-24T05:42:20;8.00;;;7.20;;
12756;SDS011;31601;48.042;12.240;2023-05-24T05:44:48;9.47;;;7.90;;
12756;SDS011;31601;48.042;12.240;2023-05-24T05:47:14;9.20;;;6.97;;
12756;SDS011;31601;48.042;12.240;2023-05-24T05:49:40;15.53;;;8.33;;
12756;SDS011;31601;48.042;12.240;2023-05-24T05:52:07;9.23;;;8.00;;
12756;SDS011;31601;48.042;12.240;2023-05-24T05:54:33;8.73;;;7.83;;
12756;SDS011;31601;48.042;12.240;2023-05-24T05:57:00;8.50;;;7.67;;
12756;SDS011;31601;48.042;12.240;2023-05-24T05:59:26;8.73;;;7.67;;
12756;SDS011;31601;48.042;12.240;2023-05-24T06:01:54;10.33;;;7.57;;
12756;SDS011;31601;48.042;12.240;2023-05-24T06:04:20;8.47;;;7.53;;
12756;SDS011;31601;48.042;12.240;2023-05-24T06:06:47;9.10;;;7.03;;
12756;SDS011;31601;48.042;12.240;2023-05-24T06:09:14;8.10;;;7.30;;
12756;SDS011;31601;48.042;12.240;2023-05-24T06:11:40;18.43;;;7.60;;
12756;SDS011;31601;48.042;12.240;2023-05-24T06:14:08;8.50;;;7.10;;
12756;SDS011;31601;48.042;12.240;2023-05-24T06:16:36;8.03;;;6.73;;
12756;SDS011;31601;48.042;12.240;2023-05-24T06:19:07;6.80;;;6.20;;
12756;SDS011;31601;48.042;12.240;2023-05-24T06:21:34;7.37;;;6.43;;
12756;SDS011;31601;48.042;12.240;2023-05-24T06:24:01;7.27;;;6.57;;
12756;SDS011;31601;48.042;12.240;2023-05-24T06:26:28;6.40;;;5.77;;
12756;SDS011;31601;48.042;12.240;2023-05-24T06:28:55;7.57;;;5.63;;
12756;SDS011;31601;48.042;12.240;2023-05-24T06:31:21;5.63;;;4.97;;
12756;SDS011;31601;48.042;12.240;2023-05-24T06:33:47;7.53;;;5.83;;
12756;SDS011;31601;48.042;12.240;2023-05-24T06:36:15;6.30;;;5.70;;
12756;SDS011;31601;48.042;12.240;2023-05-24T06:38:41;9.57;;;5.57;;
12756;SDS011;31601;48.042;12.240;2023-05-24T06:41:08;6.00;;;5.03;;
12756;SDS011;31601;48.042;12.240;2023-05-24T06:43:34;5.77;;;5.10;;
12756;SDS011;31601;48.042;12.240;2023-05-24T06:46:01;5.57;;;5.07;;
12756;SDS011;31601;48.042;12.240;2023-05-24T06:48:27;5.60;;;5.10;;
12756;SDS011;31601;48.042;12.240;2023-05-24T06:50:54;6.20;;;5.33;;
12756;SDS011;31601;48.042;12.240;2023-05-24T06:53:21;6.37;;;5.50;;
12756;SDS011;31601;48.042;12.240;2023-05-24T06:55:48;7.77;;;5.57;;
12756;SDS011;31601;48.042;12.240;2023-05-24T06:58:14;6.20;;;5.60;;
12756;SDS011;31601;48.042;12.240;2023-05-24T07:00:41;8.23;;;5.67;;
12756;SDS011;31601;48.042;12.240;2023-05-24T07:03:09;6.00;;;5.40;;
12756;SDS011;31601;48.042;12.240;2023-05-24T07:05:37;7.33;;;5.77;;
12756;SDS011;31601;48.042;12.240;2023-05-24T07:08:04;6.37;;;5.50;;
12756;SDS011;31601;48.042;12.240;2023-05-24T07:10:32;6.10;;;4.40;;
12756;SDS011;31601;48.042;12.240;2023-05-24T07:12:58;5.47;;;4.97;;
12756;SDS011;31601;48.042;12.240;2023-05-24T07:15:25;7.70;;;5.10;;
12756;SDS011;31601;48.042;12.240;2023-05-24T07:17:52;6.57;;;4.87;;
12756;SDS011;31601;48.042;12.240;2023-05-24T07:20:18;6.33;;;5.73;;
12756;SDS011;31601;48.042;12.240;2023-05-24T07:22:44;5.43;;;4.93;;
12756;SDS011;31601;48.042;12.240;2023-05-24T07:25:11;6.87;;;5.50;;
12756;SDS011;31601;48.042;12.240;2023-05-24T07:27:39;5.77;;;5.20;;
12756;SDS011;31601;48.042;12.240;2023-05-24T07:30:06;5.70;;;5.00;;
12756;SDS011;31601;48.042;12.240;2023-05-24T07:32:33;6.73;;;4.93;;
12756;SDS011;31601;48.042;12.240;2023-05-24T07:34:59;7.60;;;5.03;;
12756;SDS011;31601;48.042;12.240;2023-05-24T07:37:26;5.37;;;4.87;;
12756;SDS011;31601;48.042;12.240;2023-05-24T07:39:52;6.43;;;4.77;;
12756;SDS011;31601;48.042;12.240;2023-05-24T07:42:19;4.87;;;4.37;;
12756;SDS011;31601;48.042;12.240;2023-05-24T07:44:46;5.30;;;4.80;;
12756;SDS011;31601;48.042;12.240;2023-05-24T07:47:13;5.07;;;4.57;;
12756;SDS011;31601;48.042;12.240;2023-05-24T07:49:39;5.70;;;4.68;;
12756;SDS011;31601;48.042;12.240;2023-05-24T07:52:06;5.43;;;4.82;;
12756;SDS011;31601;48.042;12.240;2023-05-24T07:54:32;4.93;;;4.47;;
12756;SDS011;31601;48.042;12.240;2023-05-24T07:56:59;5.47;;;4.97;;
12756;SDS011;31601;48.042;12.240;2023-05-24T07:59:26;4.93;;;4.45;;
12756;SDS011;31601;48.042;12.240;2023-05-24T08:01:54;5.10;;;4.60;;
12756;SDS011;31601;48.042;12.240;2023-05-24T08:04:25;5.45;;;4.95;;
12756;SDS011;31601;48.042;12.240;2023-05-24T08:06:52;5.60;;;4.90;;
12756;SDS011;31601;48.042;12.240;2023-05-24T08:09:18;5.55;;;5.05;;
12756;SDS011;31601;48.042;12.240;2023-05-24T08:11:44;5.35;;;4.85;;
12756;SDS011;31601;48.042;12.240;2023-05-24T08:14:11;5.10;;;4.60;;
12756;SDS011;31601;48.042;12.240;2023-05-24T08:16:37;5.65;;;5.05;;
12756;SDS011;31601;48.042;12.240;2023-05-24T08:19:05;5.35;;;4.85;;
12756;SDS011;31601;48.042;12.240;2023-05-24T08:21:31;7.70;;;4.78;;
12756;SDS011;31601;48.042;12.240;2023-05-24T08:23:58;7.55;;;5.35;;
12756;SDS011;31601;48.042;12.240;2023-05-24T08:26:25;5.35;;;4.85;;
12756;SDS011;31601;48.042;12.240;2023-05-24T08:28:51;5.30;;;4.80;;
12756;SDS011;31601;48.042;12.240;2023-05-24T08:31:18;4.50;;;4.10;;
12756;SDS011;31601;48.042;12.240;2023-05-24T08:33:45;4.45;;;3.85;;
12756;SDS011;31601;48.042;12.240;2023-05-24T08:36:15;5.10;;;3.90;;
12756;SDS011;31601;48.042;12.240;2023-05-24T08:38:42;4.53;;;4.10;;
12756;SDS011;31601;48.042;12.240;2023-05-24T08:41:09;5.35;;;4.07;;
12756;SDS011;31601;48.042;12.240;2023-05-24T08:43:36;5.80;;;4.50;;
12756;SDS011;31601;48.042;12.240;2023-05-24T08:46:04;4.50;;;4.10;;
12756;SDS011;31601;48.042;12.240;2023-05-24T08:48:31;5.75;;;4.18;;
12756;SDS011;31601;48.042;12.240;2023-05-24T08:50:58;6.05;;;4.40;;
12756;SDS011;31601;48.042;12.240;2023-05-24T08:53:26;4.55;;;4.15;;
12756;SDS011;31601;48.042;12.240;2023-05-24T08:55:53;7.93;;;4.57;;
12756;SDS011;31601;48.042;12.240;2023-05-24T08:58:20;4.82;;;4.43;;
12756;SDS011;31601;48.042;12.240;2023-05-24T09:00:46;5.47;;;4.18;;
12756;SDS011;31601;48.042;12.240;2023-05-24T09:03:13;8.43;;;7.63;;
12756;SDS011;31601;48.042;12.240;2023-05-24T09:05:40;4.55;;;4.15;;
12756;SDS011;31601;48.042;12.240;2023-05-24T09:08:07;4.78;;;3.80;;
12756;SDS011;31601;48.042;12.240;2023-05-24T09:10:36;4.25;;;3.78;;
12756;SDS011;31601;48.042;12.240;2023-05-24T09:13:02;6.00;;;4.35;;
12756;SDS011;31601;48.042;12.240;2023-05-24T09:15:32;5.10;;;4.60;;
12756;SDS011;31601;48.042;12.240;2023-05-24T09:17:58;5.68;;;4.38;;
12756;SDS011;31601;48.042;12.240;2023-05-24T09:20:25;6.30;;;3.85;;
12756;SDS011;31601;48.042;12.240;2023-05-24T09:22:52;7.10;;;4.53;;
12756;SDS011;31601;48.042;12.240;2023-05-24T09:25:18;5.38;;;4.70;;
12756;SDS011;31601;48.042;12.240;2023-05-24T09:27:49;5.23;;;4.20;;
12756;SDS011;31601;48.042;12.240;2023-05-24T09:30:16;9.53;;;4.63;;
12756;SDS011;31601;48.042;12.240;2023-05-24T09:32:52;8.63;;;4.70;;
12756;SDS011;31601;48.042;12.240;2023-05-24T09:35:21;6.80;;;5.03;;
12756;SDS011;31601;48.042;12.240;2023-05-24T09:37:47;6.40;;;5.10;;
12756;SDS011;31601;48.042;12.240;2023-05-24T09:40:16;5.63;;;4.97;;
12756;SDS011;31601;48.042;12.240;2023-05-24T09:42:43;4.67;;;4.27;;
12756;SDS011;31601;48.042;12.240;2023-05-24T09:45:11;5.23;;;4.73;;
12756;SDS011;31601;48.042;12.240;2023-05-24T09:47:38;4.83;;;4.33;;
12756;SDS011;31601;48.042;12.240;2023-05-24T09:50:15;5.63;;;4.87;;
12756;SDS011;31601;48.042;12.240;2023-05-24T09:52:42;5.93;;;5.30;;
12756;SDS011;31601;48.042;12.240;2023-05-24T09:55:11;6.40;;;5.68;;
12756;SDS011;31601;48.042;12.240;2023-05-24T09:57:39;6.07;;;5.40;;
12756;SDS011;31601;48.042;12.240;2023-05-24T10:00:06;8.67;;;6.27;;
12756;SDS011;31601;48.042;12.240;2023-05-24T10:02:43;10.20;;;5.27;;
12756;SDS011;31601;48.042;12.240;2023-05-24T10:05:10;4.97;;;4.57;;
12756;SDS011;31601;48.042;12.240;2023-05-24T10:07:37;5.20;;;4.40;;
12756;SDS011;31601;48.042;12.240;2023-05-24T10:10:06;7.03;;;4.40;;
12756;SDS011;31601;48.042;12.240;2023-05-24T10:12:34;4.37;;;3.97;;
12756;SDS011;31601;48.042;12.240;2023-05-24T10:15:01;6.47;;;4.80;;
12756;SDS011;31601;48.042;12.240;2023-05-24T10:17:28;5.70;;;5.10;;
12756;SDS011;31601;48.042;12.240;2023-05-24T10:19:56;5.57;;;5.07;;
12756;SDS011;31601;48.042;12.240;2023-05-24T10:22:23;5.40;;;4.60;;
12756;SDS011;31601;48.042;12.240;2023-05-24T10:24:52;6.00;;;4.93;;
12756;SDS011;31601;48.042;12.240;2023-05-24T10:27:23;6.13;;;4.80;;
12756;SDS011;31601;48.042;12.240;2023-05-24T10:29:57;6.60;;;4.73;;
12756;SDS011;31601;48.042;12.240;2023-05-24T10:32:30;5.73;;;5.13;;
12756;SDS011;31601;48.042;12.240;2023-05-24T10:35:00;5.73;;;5.23;;
12756;SDS011;31601;48.042;12.240;2023-05-24T10:37:29;5.10;;;4.57;;
12756;SDS011;31601;48.042;12.240;2023-05-24T10:39:56;5.47;;;4.97;;
12756;SDS011;31601;48.042;12.240;2023-05-24T10:42:23;8.27;;;4.87;;
12756;SDS011;31601;48.042;12.240;2023-05-24T10:44:50;5.70;;;5.10;;
12756;SDS011;31601;48.042;12.240;2023-05-24T10:47:19;6.60;;;5.27;;
12756;SDS011;31601;48.042;12.240;2023-05-24T10:49:46;7.00;;;6.23;;
12756;SDS011;31601;48.042;12.240;2023-05-24T10:52:16;6.67;;;6.03;;
12756;SDS011;31601;48.042;12.240;2023-05-24T10:57:28;11.10;;;6.13;;
12756;SDS011;31601;48.042;12.240;2023-05-24T10:59:56;9.10;;;5.97;;
12756;SDS011;31601;48.042;12.240;2023-05-24T11:02:23;10.17;;;6.30;;
12756;SDS011;31601;48.042;12.240;2023-05-24T11:04:53;9.70;;;7.33;;
12756;SDS011;31601;48.042;12.240;2023-05-24T11:07:21;7.67;;;6.40;;
12756;SDS011;31601;48.042;12.240;2023-05-24T11:09:49;11.20;;;7.67;;
12756;SDS011;31601;48.042;12.240;2023-05-24T11:12:21;12.70;;;8.83;;
12756;SDS011;31601;48.042;12.240;2023-05-24T11:14:48;12.00;;;9.43;;
12756;SDS011;31601;48.042;12.240;2023-05-24T11:17:16;11.13;;;9.67;;
12756;SDS011;31601;48.042;12.240;2023-05-24T11:19:44;17.63;;;10.93;;
12756;SDS011;31601;48.042;12.240;2023-05-24T11:22:12;16.53;;;11.87;;
12756;SDS011;31601;48.042;12.240;2023-05-24T11:24:41;13.43;;;11.00;;
12756;SDS011;31601;48.042;12.240;2023-05-24T11:27:09;14.80;;;11.70;;
12756;SDS011;31601;48.042;12.240;2023-05-24T11:29:40;16.07;;;13.47;;
12756;SDS011;31601;48.042;12.240;2023-05-24T11:32:08;18.27;;;12.73;;
12756;SDS011;31601;48.042;12.240;2023-05-24T11:34:36;19.47;;;13.90;;
12756;SDS011;31601;48.042;12.240;2023-05-24T11:37:04;17.60;;;13.30;;
12756;SDS011;31601;48.042;12.240;2023-05-24T11:39:31;14.53;;;12.47;;
12756;SDS011;31601;48.042;12.240;2023-05-24T11:42:02;14.30;;;11.23;;
12756;SDS011;31601;48.042;12.240;2023-05-24T11:44:30;19.13;;;12.97;;
12756;SDS011;31601;48.042;12.240;2023-05-24T11:46:57;15.13;;;12.10;;
12756;SDS011;31601;48.042;12.240;2023-05-24T11:49:24;14.20;;;12.10;;
12756;SDS011;31601;48.042;12.240;2023-05-24T11:51:52;16.73;;;11.90;;
12756;SDS011;31601;48.042;12.240;2023-05-24T11:54:20;13.80;;;10.63;;
12756;SDS011;31601;48.042;12.240;2023-05-24T11:56:47;16.53;;;11.17;;
12756;SDS011;31601;48.042;12.240;2023-05-24T11:59:15;14.77;;;10.57;;
12756;SDS011;31601;48.042;12.240;2023-05-24T12:01:43;13.53;;;11.03;;
12756;SDS011;31601;48.042;12.240;2023-05-24T12:04:09;12.20;;;10.53;;
12756;SDS011;31601;48.042;12.240;2023-05-24T12:06:37;11.07;;;9.83;;
12756;SDS011;31601;48.042;12.240;2023-05-24T12:09:04;12.80;;;9.70;;
12756;SDS011;31601;48.042;12.240;2023-05-24T12:11:36;14.97;;;10.43;;
12756;SDS011;31601;48.042;12.240;2023-05-24T12:14:04;13.27;;;9.07;;
12756;SDS011;31601;48.042;12.240;2023-05-24T12:16:32;12.73;;;10.43;;
12756;SDS011;31601;48.042;12.240;2023-05-24T12:19:01;11.93;;;9.73;;
12756;SDS011;31601;48.042;12.240;2023-05-24T12:21:29;11.03;;;9.70;;
12756;SDS011;31601;48.042;12.240;2023-05-24T12:24:03;11.83;;;9.33;;
12756;SDS011;31601;48.042;12.240;2023-05-24T12:26:29;11.30;;;9.27;;
12756;SDS011;31601;48.042;12.240;2023-05-24T12:28:56;10.20;;;8.23;;
12756;SDS011;31601;48.042;12.240;2023-05-24T12:31:25;13.07;;;9.43;;
12756;SDS011;31601;48.042;12.240;2023-05-24T12:33:52;13.10;;;9.30;;
12756;SDS011;31601;48.042;12.240;2023-05-24T12:36:19;11.60;;;8.77;;
12756;SDS011;31601;48.042;12.240;2023-05-24T12:38:46;14.03;;;9.03;;
12756;SDS011;31601;48.042;12.240;2023-05-24T12:41:12;14.67;;;9.47;;
12756;SDS011;31601;48.042;12.240;2023-05-24T12:43:38;10.40;;;7.80;;
12756;SDS011;31601;48.042;12.240;2023-05-24T12:46:05;10.70;;;7.90;;
12756;SDS011;31601;48.042;12.240;2023-05-24T12:48:32;14.60;;;8.87;;
12756;SDS011;31601;48.042;12.240;2023-05-24T12:50:59;12.00;;;8.37;;
12756;SDS011;31601;48.042;12.240;2023-05-24T12:53:27;13.07;;;8.73;;
12756;SDS011;31601;48.042;12.240;2023-05-24T12:55:54;10.40;;;7.73;;
12756;SDS011;31601;48.042;12.240;2023-05-24T12:58:21;9.93;;;8.20;;
12756;SDS011;31601;48.042;12.240;2023-05-24T13:00:47;9.37;;;7.57;;
12756;SDS011;31601;48.042;12.240;2023-05-24T13:03:15;13.47;;;8.23;;
12756;SDS011;31601;48.042;12.240;2023-05-24T13:05:42;12.13;;;8.20;;
12756;SDS011;31601;48.042;12.240;2023-05-24T13:08:11;14.13;;;8.87;;
12756;SDS011;31601;48.042;12.240;2023-05-24T13:10:38;8.80;;;7.60;;
12756;SDS011;31601;48.042;12.240;2023-05-24T13:13:05;14.07;;;8.17;;
12756;SDS011;31601;48.042;12.240;2023-05-24T13:15:32;12.57;;;7.23;;
12756;SDS011;31601;48.042;12.240;2023-05-24T13:17:58;9.83;;;7.50;;
12756;SDS011;31601;48.042;12.240;2023-05-24T13:20:24;10.87;;;6.97;;
12756;SDS011;31601;48.042;12.240;2023-05-24T13:22:51;12.07;;;7.80;;
12756;SDS011;31601;48.042;12.240;2023-05-24T13:25:19;13.73;;;8.50;;
12756;SDS011;31601;48.042;12.240;2023-05-24T13:27:46;10.45;;;7.53;;
12756;SDS011;31601;48.042;12.240;2023-05-24T13:30:13;11.27;;;7.07;;
12756;SDS011;31601;48.042;12.240;2023-05-24T13:32:41;10.03;;;7.93;;
12756;SDS011;31601;48.042;12.240;2023-05-24T13:35:08;11.00;;;7.33;;
12756;SDS011;31601;48.042;12.240;2023-05-24T13:37:35;9.67;;;7.53;;
12756;SDS011;31601;48.042;12.240;2023-05-24T13:40:01;11.10;;;6.83;;
12756;SDS011;31601;48.042;12.240;2023-05-24T13:42:29;14.30;;;7.33;;
12756;SDS011;31601;48.042;12.240;2023-05-24T13:44:56;10.80;;;7.23;;
12756;SDS011;31601;48.042;12.240;2023-05-24T13:47:23;10.27;;;6.90;;
12756;SDS011;31601;48.042;12.240;2023-05-24T13:49:50;10.30;;;7.00;;
12756;SDS011;31601;48.042;12.240;2023-05-24T13:52:16;18.07;;;7.80;;
12756;SDS011;31601;48.042;12.240;2023-05-24T13:54:43;9.63;;;7.13;;
12756;SDS011;31601;48.042;12.240;2023-05-24T13:57:10;10.87;;;6.77;;
12756;SDS011;31601;48.042;12.240;2023-05-24T13:59:38;14.63;;;7.03;;
12756;SDS011;31601;48.042;12.240;2023-05-24T14:02:04;9.57;;;7.10;;
12756;SDS011;31601;48.042;12.240;2023-05-24T14:04:30;9.73;;;7.10;;
12756;SDS011;31601;48.042;12.240;2023-05-24T14:06:57;13.70;;;7.13;;
12756;SDS011;31601;48.042;12.240;2023-05-24T14:09:23;11.37;;;7.40;;
12756;SDS011;31601;48.042;12.240;2023-05-24T14:11:50;10.77;;;7.63;;
12756;SDS011;31601;48.042;12.240;2023-05-24T14:14:17;12.25;;;7.25;;
12756;SDS011;31601;48.042;12.240;2023-05-24T14:16:45;11.47;;;7.87;;
12756;SDS011;31601;48.042;12.240;2023-05-24T14:19:15;13.57;;;8.63;;
12756;SDS011;31601;48.042;12.240;2023-05-24T14:21:42;12.27;;;7.03;;
12756;SDS011;31601;48.042;12.240;2023-05-24T14:24:08;13.25;;;7.22;;
12756;SDS011;31601;48.042;12.240;2023-05-24T14:26:34;11.43;;;7.13;;
12756;SDS011;31601;48.042;12.240;2023-05-24T14:29:01;10.73;;;6.55;;
12756;SDS011;31601;48.042;12.240;2023-05-24T14:31:27;9.13;;;6.88;;
12756;SDS011;31601;48.042;12.240;2023-05-24T14:33:55;13.10;;;7.00;;
12756;SDS011;31601;48.042;12.240;2023-05-24T14:36:21;17.23;;;8.00;;